Time;durP1;ratioP1;P1;durP2;ratioP2;P2;SDS_P1;SDS_P2;PMS_P1;PMS_P2;Temp;Humidity;BMP_temperature;BMP_pressure;BME280_temperature;BME280_humidity;BME280_pressure;Samples;Min_cycle;Max_cycle;Signal;HPM_P1;HPM_P2
2024/03/18 00:00:25;;;;;;;0.30;0.20;;;;;;;10.53;100.00;100409.16;5015059;28;20224;-50
2024/03/18 00:02:54;;;;;;;0.30;0.20;;;;;;;10.50;100.00;100414.56;5001954;28;20217;-50
2024/03/18 00:05:21;;;;;;;0.30;0.20;;;;;;;10.44;100.00;100410.31;5014854;28;20787;-50
2024/03/18 00:07:49;;;;;;;0.30;0.20;;;;;;;10.41;100.00;100401.50;4997475;28;20465;-50
2024/03/18 00:10:15;;;;;;;0.30;0.20;;;;;;;10.45;100.00;100411.16;4995221;28;20465;-50
2024/03/18 00:12:42;;;;;;;0.40;0.30;;;;;;;10.33;100.00;100407.91;5014933;28;20578;-50
2024/03/18 00:15:09;;;;;;;0.40;0.30;;;;;;;10.45;100.00;100411.16;4995552;28;20236;-50
2024/03/18 00:17:35;;;;;;;0.30;0.20;;;;;;;10.44;100.00;100406.78;5015055;28;20468;-50
2024/03/18 00:20:08;;;;;;;0.33;0.20;;;;;;;10.39;100.00;100420.16;5001732;28;20457;-50
2024/03/18 00:22:35;;;;;;;0.30;0.20;;;;;;;10.50;100.00;100412.78;5014969;28;20463;-50
2024/03/18 00:25:01;;;;;;;0.30;0.20;;;;;;;10.55;100.00;100408.25;5000794;28;20488;-50
2024/03/18 00:27:27;;;;;;;0.30;0.20;;;;;;;10.58;100.00;100402.84;5002809;28;20621;-50
2024/03/18 00:29:53;;;;;;;0.30;0.20;;;;;;;10.47;100.00;100399.59;5014583;28;20216;-50
2024/03/18 00:32:18;;;;;;;0.30;0.20;;;;;;;10.36;100.00;100391.88;5007156;28;20495;-50
2024/03/18 00:34:44;;;;;;;0.30;0.20;;;;;;;10.04;100.00;100384.72;5027519;28;20481;-50
2024/03/18 00:37:10;;;;;;;0.30;0.20;;;;;;;10.10;100.00;100389.00;5007453;28;20225;-50
2024/03/18 00:39:36;;;;;;;0.30;0.20;;;;;;;10.12;100.00;100389.81;5008513;28;20956;-50
2024/03/18 00:42:02;;;;;;;0.30;0.20;;;;;;;10.27;100.00;100386.78;4991040;28;20201;-50
2024/03/18 00:44:28;;;;;;;0.30;0.20;;;;;;;10.11;100.00;100372.13;4995542;28;20316;-50
2024/03/18 00:46:57;;;;;;;0.30;0.20;;;;;;;10.28;100.00;100372.63;5014324;28;20843;-50
2024/03/18 00:49:23;;;;;;;0.30;0.20;;;;;;;10.40;100.00;100374.06;5000994;28;20480;-50
2024/03/18 00:51:49;;;;;;;0.30;0.20;;;;;;;10.41;100.00;100372.28;5014522;28;20491;-50
2024/03/18 00:54:14;;;;;;;0.30;0.20;;;;;;;10.38;100.00;100371.44;5001776;28;20548;-50
2024/03/18 00:56:40;;;;;;;0.30;0.20;;;;;;;10.42;100.00;100364.28;5007281;28;20224;-50
2024/03/18 00:59:06;;;;;;;0.30;0.20;;;;;;;10.42;100.00;100363.44;5008588;28;20252;-50
2024/03/18 01:01:33;;;;;;;0.30;0.20;;;;;;;10.30;100.00;100351.34;5007506;28;20206;-50
2024/03/18 01:03:59;;;;;;;1.70;1.60;;;;;;;10.33;100.00;100354.78;5011905;28;20472;-50
2024/03/18 01:06:25;;;;;;;0.30;0.20;;;;;;;10.64;100.00;100348.63;5010839;28;20488;-50
2024/03/18 01:08:51;;;;;;;0.30;0.20;;;;;;;10.27;100.00;100352.25;5001627;28;20461;-50
2024/03/18 01:11:17;;;;;;;0.30;0.20;;;;;;;10.25;100.00;100345.25;4998621;28;20210;-50
2024/03/18 01:13:47;;;;;;;0.30;0.20;;;;;;;10.30;100.00;100346.91;5012354;28;20464;-50
2024/03/18 01:16:17;;;;;;;0.30;0.20;;;;;;;10.21;100.00;100332.94;5010321;28;20244;-50
2024/03/18 01:18:45;;;;;;;0.40;0.40;;;;;;;10.30;100.00;100336.25;5013284;28;20521;-50
2024/03/18 01:21:11;;;;;;;0.30;0.20;;;;;;;10.25;100.00;100331.97;5009587;28;20468;-50
2024/03/18 01:23:37;;;;;;;0.30;0.20;;;;;;;10.26;100.00;100323.09;5011319;28;20547;-50
2024/03/18 01:26:03;;;;;;;0.30;0.20;;;;;;;10.38;100.00;100325.41;5000509;28;20621;-50
2024/03/18 01:28:29;;;;;;;0.30;0.20;;;;;;;10.37;100.00;100323.66;5013481;28;20826;-50
2024/03/18 01:30:56;;;;;;;0.30;0.20;;;;;;;10.40;100.00;100323.59;5009656;28;20542;-50
2024/03/18 01:33:23;;;;;;;0.30;0.20;;;;;;;10.48;100.00;100326.03;5015963;28;20987;-50
2024/03/18 01:35:49;;;;;;;0.30;0.20;;;;;;;10.50;100.00;100321.56;5018451;28;20480;-50
2024/03/18 01:38:15;;;;;;;0.30;0.20;;;;;;;10.53;100.00;100321.47;5011279;28;20953;-50
2024/03/18 01:40:41;;;;;;;0.30;0.20;;;;;;;10.50;100.00;100325.06;5007323;28;20550;-50
2024/03/18 01:43:08;;;;;;;0.30;0.20;;;;;;;10.51;100.00;100321.50;4997675;28;20301;-50
2024/03/18 01:45:34;;;;;;;0.30;0.20;;;;;;;10.48;100.00;100316.28;4997990;28;20845;-50
2024/03/18 01:47:59;;;;;;;0.40;0.30;;;;;;;10.47;100.00;100314.53;5014252;28;20483;-50
2024/03/18 01:50:25;;;;;;;0.30;0.20;;;;;;;10.50;100.00;100306.47;5013713;28;20315;-50
2024/03/18 01:52:51;;;;;;;0.30;0.20;;;;;;;10.52;100.00;100303.78;5017184;28;20229;-50
2024/03/18 01:55:16;;;;;;;0.30;0.20;;;;;;;10.50;100.00;100300.28;5011364;28;20347;-50
2024/03/18 01:57:43;;;;;;;26.40;12.63;;;;;;;10.51;100.00;100297.59;5003990;28;20258;-51
2024/03/18 02:00:15;;;;;;;0.30;0.20;;;;;;;10.53;100.00;100290.44;5033607;28;20678;-51
2024/03/18 02:02:44;;;;;;;0.30;0.20;;;;;;;10.52;100.00;100287.81;5012631;28;20869;-50
2024/03/18 02:05:10;;;;;;;0.30;0.20;;;;;;;10.47;100.00;100293.28;4999306;28;20503;-50
2024/03/18 02:07:37;;;;;;;0.53;0.53;;;;;;;10.53;100.00;100281.59;5015268;28;20460;-50
2024/03/18 02:10:07;;;;;;;0.30;0.20;;;;;;;10.53;100.00;100285.13;5005424;28;20981;-51
2024/03/18 02:12:33;;;;;;;9.60;8.77;;;;;;;10.55;100.00;100283.31;5016083;28;20491;-50
2024/03/18 02:14:59;;;;;;;0.30;0.20;;;;;;;10.55;100.00;100285.97;5004125;28;20571;-50
2024/03/18 02:17:24;;;;;;;0.30;0.20;;;;;;;10.53;100.00;100284.25;5012409;28;20210;-50
2024/03/18 02:19:50;;;;;;;0.30;0.20;;;;;;;10.49;100.00;100285.25;5004944;28;20854;-51
2024/03/18 02:22:16;;;;;;;0.30;0.20;;;;;;;10.46;100.00;100274.72;5015698;28;20223;-50
2024/03/18 02:24:41;;;;;;;0.30;0.20;;;;;;;10.48;100.00;100275.56;5016173;28;20395;-50
2024/03/18 02:27:08;;;;;;;0.30;0.20;;;;;;;10.46;100.00;100272.94;5003988;28;20217;-51
2024/03/18 02:29:34;;;;;;;0.30;0.20;;;;;;;10.53;100.00;100260.34;5016820;28;20651;-50
2024/03/18 02:32:00;;;;;;;0.30;0.20;;;;;;;10.48;100.00;100260.47;5003379;28;20514;-51
2024/03/18 02:34:25;;;;;;;0.30;0.20;;;;;;;10.50;100.00;100261.31;5028155;28;20474;-50
2024/03/18 02:36:52;;;;;;;0.30;0.20;;;;;;;10.46;100.00;100249.03;5005436;28;20217;-50
2024/03/18 02:39:22;;;;;;;0.30;0.20;;;;;;;10.41;100.00;100255.38;5016314;28;20588;-51
2024/03/18 02:41:51;;;;;;;0.30;0.20;;;;;;;10.39;100.00;100261.59;5005356;28;20473;-51
2024/03/18 02:44:17;;;;;;;0.30;0.20;;;;;;;10.42;100.00;100252.69;5014165;28;20800;-51
2024/03/18 02:46:43;;;;;;;0.30;0.20;;;;;;;10.44;100.00;100253.50;5016499;28;20467;-50
2024/03/18 02:49:10;;;;;;;0.30;0.30;;;;;;;10.48;100.00;100246.31;5004719;28;20461;-51
2024/03/18 02:51:35;;;;;;;0.30;0.20;;;;;;;10.49;100.00;100248.94;5014174;28;20488;-50
2024/03/18 02:54:01;;;;;;;0.30;0.20;;;;;;;10.48;100.00;100244.53;5016294;28;20810;-50
2024/03/18 02:56:27;;;;;;;0.30;0.20;;;;;;;10.36;100.00;100236.91;5010967;28;20647;-50
2024/03/18 02:58:54;;;;;;;0.30;0.20;;;;;;;10.31;100.00;100245.03;5008473;28;20217;-50
2024/03/18 03:01:22;;;;;;;0.30;0.20;;;;;;;10.26;100.00;100232.75;5010780;28;20229;-50
2024/03/18 03:03:48;;;;;;;1.00;1.00;;;;;;;10.30;100.00;100226.47;5008514;28;20456;-50
2024/03/18 03:06:14;;;;;;;0.30;0.20;;;;;;;10.34;100.00;100234.28;5015922;28;21023;-50
2024/03/18 03:08:39;;;;;;;0.30;0.20;;;;;;;10.41;100.00;100245.59;5009390;28;20594;-50
2024/03/18 03:11:06;;;;;;;20.43;13.80;;;;;;;10.43;100.00;100232.31;5012176;28;20669;-50
2024/03/18 03:13:31;;;;;;;0.30;0.20;;;;;;;10.36;100.00;100223.63;5015766;28;20248;-50
2024/03/18 03:15:57;;;;;;;0.30;0.20;;;;;;;10.35;100.00;100224.53;5010411;28;20476;-51
2024/03/18 03:18:24;;;;;;;0.30;0.20;;;;;;;10.48;100.00;100222.41;5008260;28;20283;-51
2024/03/18 03:20:52;;;;;;;0.30;0.20;;;;;;;10.47;100.00;100215.34;5010318;28;20469;-50
2024/03/18 03:23:17;;;;;;;0.30;0.20;;;;;;;10.41;100.00;100210.19;5008532;28;20462;-50
2024/03/18 03:25:43;;;;;;;0.30;0.20;;;;;;;10.39;100.00;100215.56;5009912;28;20861;-50
2024/03/18 03:28:09;;;;;;;0.30;0.20;;;;;;;10.36;100.00;100211.22;5015730;28;20223;-50
2024/03/18 03:30:35;;;;;;;0.30;0.20;;;;;;;10.37;100.00;100218.25;5010213;28;20213;-50
2024/03/18 03:33:04;;;;;;;0.30;0.20;;;;;;;10.37;100.00;100214.72;5007857;28;20299;-50
2024/03/18 03:35:30;;;;;;;0.30;0.20;;;;;;;10.34;100.00;100214.84;5005019;28;20487;-50
2024/03/18 03:37:57;;;;;;;0.30;0.20;;;;;;;10.35;100.00;100209.47;5008870;28;20471;-50
2024/03/18 03:40:22;;;;;;;0.30;0.20;;;;;;;10.41;100.00;100212.84;5002795;28;20466;-50
2024/03/18 03:42:48;;;;;;;0.30;0.20;;;;;;;10.42;100.00;100218.16;5015339;28;20460;-50
2024/03/18 03:45:14;;;;;;;0.30;0.20;;;;;;;10.43;100.00;100219.88;4995864;28;20249;-51
2024/03/18 03:47:39;;;;;;;0.30;0.20;;;;;;;10.44;100.00;100203.03;5013621;28;20212;-50
2024/03/18 03:50:07;;;;;;;0.30;0.20;;;;;;;10.38;100.00;100196.09;5009059;28;20221;-51
2024/03/18 03:52:33;;;;;;;0.30;0.20;;;;;;;10.37;100.00;100196.13;5008960;28;20308;-50
2024/03/18 03:54:59;;;;;;;0.30;0.20;;;;;;;10.39;100.00;100202.28;5010362;28;20476;-50
2024/03/18 03:57:24;;;;;;;0.30;0.20;;;;;;;10.27;100.00;100206.16;5002078;28;20842;-50
2024/03/18 03:59:50;;;;;;;0.30;0.20;;;;;;;10.35;100.00;100197.97;5015135;28;20220;-50
2024/03/18 04:02:17;;;;;;;0.30;0.20;;;;;;;10.43;100.00;100203.06;5002192;28;20293;-51
2024/03/18 04:04:42;;;;;;;0.30;0.20;;;;;;;10.36;100.00;100200.59;5008499;28;20261;-50
2024/03/18 04:07:08;;;;;;;0.30;0.20;;;;;;;10.33;100.00;100199.81;5011171;28;20560;-49
2024/03/18 04:09:34;;;;;;;0.30;0.20;;;;;;;10.26;100.00;100201.75;5008399;28;20267;-50
2024/03/18 04:11:59;;;;;;;0.30;0.20;;;;;;;10.27;100.00;100206.16;5008358;28;20324;-50
2024/03/18 04:14:25;;;;;;;0.30;0.20;;;;;;;10.38;100.00;100201.41;5008501;28;20675;-51
2024/03/18 04:16:51;;;;;;;0.30;0.20;;;;;;;10.36;100.00;100194.41;5008318;28;20224;-50
2024/03/18 04:19:16;;;;;;;0.30;0.20;;;;;;;10.32;100.00;100187.44;5008506;28;20263;-50
2024/03/18 04:21:42;;;;;;;0.30;0.20;;;;;;;10.27;100.00;100192.88;5009456;28;20665;-49
2024/03/18 04:24:08;;;;;;;0.30;0.20;;;;;;;10.22;100.00;100184.16;5007731;28;20288;-50
2024/03/18 04:26:35;;;;;;;0.63;0.63;;;;;;;10.27;100.00;100184.91;4996979;28;20635;-50
2024/03/18 04:29:01;;;;;;;0.30;0.20;;;;;;;10.30;100.00;100183.97;4998621;28;20482;-50
2024/03/18 04:31:26;;;;;;;0.30;0.20;;;;;;;10.32;100.00;100182.13;5001382;28;20950;-50
2024/03/18 04:33:52;;;;;;;0.30;0.20;;;;;;;10.22;100.00;100180.66;5021761;28;20661;-50
2024/03/18 04:36:17;;;;;;;0.30;0.20;;;;;;;10.32;100.00;100179.47;5007555;28;20699;-50
2024/03/18 04:38:43;;;;;;;0.30;0.20;;;;;;;10.38;100.00;100181.94;5013762;28;20244;-50
2024/03/18 04:41:13;;;;;;;0.30;0.20;;;;;;;10.36;100.00;100173.13;5014456;28;20239;-50
2024/03/18 04:43:39;;;;;;;0.30;0.20;;;;;;;10.34;100.00;100178.50;5000752;28;20216;-51
2024/03/18 04:46:05;;;;;;;0.30;0.20;;;;;;;10.40;100.00;100174.78;5001903;28;20893;-50
2024/03/18 04:48:31;;;;;;;1.90;1.80;;;;;;;10.32;100.00;100171.50;5014592;28;20224;-50
2024/03/18 04:50:56;;;;;;;0.30;0.20;;;;;;;10.33;100.00;100176.75;5011558;28;20453;-50
2024/03/18 04:53:22;;;;;;;0.30;0.20;;;;;;;10.32;100.00;100168.84;5001883;28;20272;-50
2024/03/18 04:55:47;;;;;;;0.30;0.20;;;;;;;10.30;100.00;100168.03;5014006;28;20252;-50
2024/03/18 04:58:13;;;;;;;0.30;0.20;;;;;;;10.31;100.00;100172.41;5001930;28;20216;-50
2024/03/18 05:00:38;;;;;;;0.30;0.20;;;;;;;10.33;100.00;100167.94;5014062;28;20228;-50
2024/03/18 05:03:04;;;;;;;1.50;1.50;;;;;;;10.31;100.00;100169.75;5001912;28;20231;-50
2024/03/18 05:05:31;;;;;;;0.30;0.20;;;;;;;10.30;100.00;100166.25;5055317;23;20240;-49
2024/03/18 05:07:57;;;;;;;0.30;0.20;;;;;;;10.33;100.00;100168.78;5050889;28;20217;-49
2024/03/18 05:10:23;;;;;;;0.30;0.20;;;;;;;10.33;100.00;100167.94;5050712;28;20463;-48
2024/03/18 05:12:49;;;;;;;0.30;0.20;;;;;;;10.31;100.00;100167.97;5042187;28;20494;-49
2024/03/18 05:15:15;;;;;;;0.30;0.20;;;;;;;10.33;100.00;100158.16;5050182;28;20513;-48
2024/03/18 05:17:40;;;;;;;0.30;0.20;;;;;;;10.22;100.00;100164.72;5043494;28;20499;-49
2024/03/18 05:20:12;;;;;;;0.30;0.20;;;;;;;10.20;100.00;100156.75;5044091;28;20220;-48
2024/03/18 05:22:38;;;;;;;0.30;0.20;;;;;;;10.31;100.00;100162.66;5043217;28;20251;-49
2024/03/18 05:25:06;;;;;;;0.30;0.20;;;;;;;10.32;100.00;100160.88;5043076;28;20472;-49
2024/03/18 05:27:32;;;;;;;0.40;0.30;;;;;;;10.27;100.00;100161.00;5036578;28;20434;-49
2024/03/18 05:29:57;;;;;;;0.30;0.20;;;;;;;10.28;100.00;100164.50;5034817;28;20460;-48
2024/03/18 05:32:23;;;;;;;0.30;0.20;;;;;;;10.28;100.00;100167.16;5050626;28;20240;-48
2024/03/18 05:34:49;;;;;;;0.30;0.20;;;;;;;10.33;100.00;100165.28;5033995;28;20240;-49
2024/03/18 05:37:14;;;;;;;0.30;0.20;;;;;;;10.31;100.00;100165.31;5050185;28;20605;-50
2024/03/18 05:39:40;;;;;;;0.30;0.20;;;;;;;10.33;100.00;100162.63;5050329;28;20463;-49
2024/03/18 05:42:07;;;;;;;0.30;0.20;;;;;;;10.33;100.00;100181.22;5047706;28;20689;-48
2024/03/18 05:44:32;;;;;;;0.30;0.20;;;;;;;10.45;100.00;100178.19;5031905;28;20220;-49
2024/03/18 05:46:59;;;;;;;0.30;0.20;;;;;;;10.40;100.00;100169.47;5040725;28;20991;-50
2024/03/18 05:49:24;;;;;;;0.30;0.20;;;;;;;10.38;100.00;100173.97;5046755;28;20213;-49
2024/03/18 05:51:52;;;;;;;0.30;0.20;;;;;;;10.33;100.00;100170.59;5049739;28;20482;-50
2024/03/18 05:54:18;;;;;;;0.30;0.20;;;;;;;10.39;100.00;100181.00;5040932;28;20224;-49
2024/03/18 05:56:44;;;;;;;0.30;0.20;;;;;;;10.38;100.00;100173.97;5034070;28;20475;-49
2024/03/18 05:59:10;;;;;;;0.30;0.20;;;;;;;10.42;100.00;100172.97;5048927;28;20459;-50
2024/03/18 06:01:37;;;;;;;0.30;0.20;;;;;;;10.29;100.00;100166.28;5050864;28;20972;-50
2024/03/18 06:04:03;;;;;;;0.30;0.20;;;;;;;10.24;100.00;100168.19;5048890;28;20220;-50
2024/03/18 06:06:29;;;;;;;1.60;1.60;;;;;;;10.30;100.00;100176.88;5053066;28;20487;-48
2024/03/18 06:08:54;;;;;;;0.30;0.20;;;;;;;10.27;100.00;100165.44;5053447;28;20518;-50
2024/03/18 06:11:20;;;;;;;0.30;0.20;;;;;;;10.32;100.00;100171.50;5053085;28;20220;-50
2024/03/18 06:13:46;;;;;;;0.30;0.20;;;;;;;10.31;100.00;100175.06;5052142;28;20213;-50
2024/03/18 06:16:11;;;;;;;0.30;0.20;;;;;;;10.40;100.00;100180.09;5053329;28;20289;-50
2024/03/18 06:18:37;;;;;;;0.30;0.20;;;;;;;10.41;100.00;100181.84;5053395;28;20637;-51
2024/03/18 06:21:03;;;;;;;0.30;0.20;;;;;;;10.46;100.00;100181.72;5053409;28;20232;-50
2024/03/18 06:23:33;;;;;;;0.83;0.83;;;;;;;10.45;100.00;100183.50;5053372;28;20223;-51
2024/03/18 06:25:58;;;;;;;0.30;0.20;;;;;;;10.51;100.00;100187.75;5051415;28;20701;-50
2024/03/18 06:28:31;;;;;;;0.97;0.93;;;;;;;10.76;100.00;100188.75;5047560;28;20480;-53
2024/03/18 06:30:58;;;;;;;0.30;0.20;;;;;;;11.06;100.00;100183.38;5036672;28;20216;-52
2024/03/18 06:33:24;;;;;;;0.30;0.20;;;;;;;11.19;100.00;100185.59;5034910;28;21014;-52
2024/03/18 06:35:57;;;;;;;0.30;0.20;;;;;;;11.12;100.00;100185.88;5032463;28;21004;-51
2024/03/18 06:38:26;;;;;;;0.30;0.20;;;;;;;11.32;100.00;100190.50;5050278;28;20471;-52
2024/03/18 06:40:54;;;;;;;0.30;0.20;;;;;;;11.30;100.00;100193.22;5042163;28;20452;-52
2024/03/18 06:43:20;;;;;;;0.30;0.20;;;;;;;11.12;100.00;100202.69;5036228;28;20514;-52
2024/03/18 06:45:45;;;;;;;0.40;0.20;;;;;;;10.92;100.00;100190.00;5043853;28;20838;-52
2024/03/18 06:48:11;;;;;;;0.30;0.20;;;;;;;10.87;100.00;100193.75;5052830;28;20216;-51
2024/03/18 06:50:39;;;;;;;0.30;0.20;;;;;;;10.81;100.00;100201.91;5052596;28;20322;-51
2024/03/18 06:53:05;;;;;;;0.30;0.20;;;;;;;10.70;100.00;100199.59;5052304;28;20910;-52
2024/03/18 06:55:32;;;;;;;0.30;0.20;;;;;;;10.65;100.00;100194.41;5046214;28;20487;-52
2024/03/18 06:57:59;;;;;;;0.30;0.20;;;;;;;10.59;100.00;100204.34;5050916;28;20863;-52
2024/03/18 07:00:25;;;;;;;0.30;0.20;;;;;;;10.68;100.00;100206.72;5052198;28;20466;-51
2024/03/18 07:02:51;;;;;;;0.30;0.20;;;;;;;10.68;100.00;100207.59;5052261;28;20545;-52
2024/03/18 07:05:17;;;;;;;0.30;0.20;;;;;;;10.65;100.00;100206.81;5052669;28;20240;-52
2024/03/18 07:07:43;;;;;;;0.40;0.30;;;;;;;10.61;100.00;100215.81;5047029;28;20291;-52
2024/03/18 07:10:09;;;;;;;0.30;0.20;;;;;;;10.52;100.00;100201.00;5052569;28;20474;-52
2024/03/18 07:12:35;;;;;;;0.30;0.20;;;;;;;10.62;100.00;100209.56;5051979;28;20506;-52
2024/03/18 07:15:01;;;;;;;0.30;0.20;;;;;;;10.46;100.00;100214.47;5054042;28;20463;-51
2024/03/18 07:17:27;;;;;;;0.30;0.20;;;;;;;10.51;100.00;100209.88;5052839;28;20295;-51
2024/03/18 07:19:53;;;;;;;0.30;0.20;;;;;;;10.48;100.00;100209.97;5052516;28;20478;-52
2024/03/18 07:22:18;;;;;;;0.30;0.20;;;;;;;10.55;100.00;100215.97;5052142;28;20208;-52
2024/03/18 07:24:44;;;;;;;0.30;0.20;;;;;;;10.58;100.00;100214.13;5052648;28;20232;-50
2024/03/18 07:27:09;;;;;;;0.30;0.20;;;;;;;10.49;100.00;100210.84;5050444;28;20311;-50
2024/03/18 07:29:35;;;;;;;0.30;0.20;;;;;;;10.35;100.00;100211.25;5052454;28;20307;-49
2024/03/18 07:32:01;;;;;;;0.30;0.20;;;;;;;10.31;100.00;100206.97;5051898;28;20228;-50
2024/03/18 07:34:26;;;;;;;0.30;0.20;;;;;;;10.37;100.00;100198.78;5040241;28;20585;-50
2024/03/18 07:36:52;;;;;;;0.30;0.20;;;;;;;10.56;100.00;100209.78;5050281;28;20494;-49
2024/03/18 07:39:18;;;;;;;0.30;0.20;;;;;;;10.58;100.00;100200.84;5052091;28;20236;-50
2024/03/18 07:41:43;;;;;;;0.30;0.20;;;;;;;10.53;100.00;100204.53;5049506;28;20224;-50
2024/03/18 07:44:09;;;;;;;0.30;0.20;;;;;;;10.63;100.00;100208.66;5045304;28;20658;-50
2024/03/18 07:46:34;;;;;;;0.30;0.20;;;;;;;10.52;100.00;100208.97;5036409;28;20621;-50
2024/03/18 07:49:00;;;;;;;0.30;0.20;;;;;;;10.57;100.00;100207.06;5051883;28;20213;-50
2024/03/18 07:51:26;;;;;;;0.30;0.20;;;;;;;10.59;100.00;100209.66;5051562;28;20217;-50
2024/03/18 07:53:52;;;;;;;0.30;0.20;;;;;;;10.61;100.00;100208.69;5051626;28;20216;-50
2024/03/18 07:56:18;;;;;;;0.30;0.20;;;;;;;11.13;100.00;100215.06;5026505;28;20482;-50
2024/03/18 07:58:43;;;;;;;0.30;0.20;;;;;;;10.88;100.00;100207.00;5051688;28;20226;-51
2024/03/18 08:01:11;;;;;;;0.30;0.20;;;;;;;10.80;100.00;100210.78;5051265;28;20234;-51
2024/03/18 08:03:37;;;;;;;0.30;0.20;;;;;;;10.86;100.00;100213.28;5051539;28;20630;-50
2024/03/18 08:06:10;;;;;;;0.30;0.20;;;;;;;10.70;100.00;100212.88;5050788;28;21003;-51
2024/03/18 08:08:36;;;;;;;0.30;0.20;;;;;;;10.59;100.00;100213.19;5046544;28;20464;-51
2024/03/18 08:11:02;;;;;;;0.30;0.20;;;;;;;10.58;100.00;100210.59;5050251;28;20797;-51
2024/03/18 08:13:27;;;;;;;0.30;0.20;;;;;;;10.59;100.00;100207.00;5050249;28;20576;-50
2024/03/18 08:15:53;;;;;;;0.30;0.20;;;;;;;10.64;100.00;100216.56;5051234;28;20240;-50
2024/03/18 08:18:19;;;;;;;0.30;0.20;;;;;;;10.61;100.00;100213.16;5051274;28;20220;-51
2024/03/18 08:20:44;;;;;;;0.30;0.20;;;;;;;10.70;100.00;100215.53;5050925;28;20224;-51
2024/03/18 08:23:10;;;;;;;0.30;0.20;;;;;;;10.85;100.00;100211.53;5051196;28;20208;-51
2024/03/18 08:25:35;;;;;;;0.30;0.20;;;;;;;10.87;100.00;100207.91;5049362;28;20248;-51
2024/03/18 08:28:01;;;;;;;0.30;0.20;;;;;;;10.84;100.00;100215.13;5034529;28;20224;-51
2024/03/18 08:30:26;;;;;;;2.73;1.33;;;;;;;10.87;100.00;100218.56;5051067;28;20220;-51
2024/03/18 08:32:52;;;;;;;0.30;0.20;;;;;;;10.87;100.00;100225.66;5039353;28;20244;-51
2024/03/18 08:35:18;;;;;;;0.30;0.20;;;;;;;10.87;100.00;100220.34;5036430;28;20240;-51
2024/03/18 08:37:44;;;;;;;0.30;0.20;;;;;;;10.58;100.00;100218.56;5051000;28;20227;-50
2024/03/18 08:40:10;;;;;;;0.30;0.20;;;;;;;10.70;100.00;100218.19;5050932;28;20220;-51
2024/03/18 08:42:39;;;;;;;0.30;0.20;;;;;;;10.62;100.00;100215.75;5048835;28;20209;-51
2024/03/18 08:45:09;;;;;;;0.30;0.20;;;;;;;10.49;100.00;100222.34;5041354;28;20463;-51
2024/03/18 08:47:35;;;;;;;0.30;0.20;;;;;;;10.47;100.00;100218.00;5043416;28;20478;-49
2024/03/18 08:50:00;;;;;;;0.30;0.20;;;;;;;10.47;100.00;100220.66;5050753;28;20459;-51
2024/03/18 08:52:26;;;;;;;0.40;0.40;;;;;;;10.66;100.00;100214.75;5050642;28;20369;-51
2024/03/18 08:54:52;;;;;;;0.30;0.20;;;;;;;10.75;100.00;100213.59;5049385;28;20219;-51
2024/03/18 08:57:18;;;;;;;0.30;0.20;;;;;;;10.76;100.00;100219.78;5044202;28;20433;-50
2024/03/18 08:59:44;;;;;;;0.30;0.20;;;;;;;10.97;100.00;100222.66;5050979;28;20216;-51
2024/03/18 09:02:09;;;;;;;0.30;0.20;;;;;;;10.85;100.00;100220.38;5050837;28;20461;-50
2024/03/18 09:04:35;;;;;;;0.30;0.20;;;;;;;10.80;100.00;100224.09;5050923;28;20582;-52
2024/03/18 09:07:00;;;;;;;0.30;0.20;;;;;;;10.83;100.00;100221.34;5050765;28;20695;-52
2024/03/18 09:09:27;;;;;;;0.30;0.30;;;;;;;10.98;100.00;100227.06;5050903;28;20270;-51
2024/03/18 09:11:53;;;;;;;0.30;0.20;;;;;;;11.05;100.00;100216.22;5037063;28;20290;-51
2024/03/18 09:14:18;;;;;;;0.30;0.20;;;;;;;11.12;100.00;100210.66;5050443;28;20463;-51
2024/03/18 09:16:44;;;;;;;0.30;0.20;;;;;;;10.99;100.00;100217.31;5050699;28;20486;-51
2024/03/18 09:19:10;;;;;;;0.30;0.20;;;;;;;11.21;100.00;100218.34;5050736;28;20563;-51
2024/03/18 09:21:36;;;;;;;0.30;0.20;;;;;;;11.22;100.00;100216.53;5050650;28;20993;-51
2024/03/18 09:24:02;;;;;;;0.30;0.20;;;;;;;11.38;100.00;100220.47;5051928;28;20224;-52
2024/03/18 09:26:28;;;;;;;0.30;0.20;;;;;;;11.39;100.00;100226.66;5053225;28;20240;-52
2024/03/18 09:28:53;;;;;;;0.30;0.20;;;;;;;11.49;100.00;100223.63;5054320;28;20493;-50
2024/03/18 09:31:19;;;;;;;0.40;0.40;;;;;;;11.61;100.00;100226.78;5054367;28;20217;-52
2024/03/18 09:33:44;;;;;;;0.30;0.20;;;;;;;11.63;100.00;100227.63;5047770;28;20658;-51
2024/03/18 09:36:10;;;;;;;0.30;0.20;;;;;;;11.57;100.00;100229.56;5046745;28;20236;-51
2024/03/18 09:38:35;;;;;;;0.30;0.20;;;;;;;11.53;100.00;100225.28;5054208;28;20224;-51
2024/03/18 09:41:06;;;;;;;0.30;0.20;;;;;;;11.87;100.00;100232.13;5053095;28;20266;-51
2024/03/18 09:43:33;;;;;;;0.30;0.20;;;;;;;11.88;100.00;100233.00;5053836;28;20220;-51
2024/03/18 09:46:04;;;;;;;0.37;0.23;;;;;;;12.01;100.00;100242.31;5039943;28;20479;-51
2024/03/18 09:48:32;;;;;;;0.30;0.20;;;;;;;11.76;100.00;100242.25;5028328;28;20925;-52
2024/03/18 09:50:59;;;;;;;0.30;0.20;;;;;;;11.73;100.00;100232.56;5054040;28;20458;-51
2024/03/18 09:53:27;;;;;;;0.30;0.20;;;;;;;11.68;100.00;100229.22;5053683;28;20490;-51
2024/03/18 09:55:53;;;;;;;0.30;0.20;;;;;;;11.91;100.00;100230.22;5044628;28;20847;-52
2024/03/18 09:58:19;;;;;;;0.30;0.20;;;;;;;11.81;100.00;100224.38;5053963;28;20429;-51
2024/03/18 10:00:45;;;;;;;0.30;0.20;;;;;;;11.70;100.00;100226.50;5053557;28;20471;-51
2024/03/18 10:03:18;;;;;;;0.30;0.20;;;;;;;11.88;100.00;100228.53;5053845;28;20216;-51
2024/03/18 10:05:46;;;;;;;0.30;0.20;;;;;;;12.11;100.00;100217.97;5053181;28;20494;-52
2024/03/18 10:08:13;;;;;;;0.30;0.20;;;;;;;12.17;100.00;100219.50;5053937;28;20467;-51
2024/03/18 10:10:39;;;;;;;0.30;0.20;;;;;;;12.29;100.00;100216.41;5050953;28;20835;-51
2024/03/18 10:13:07;;;;;;;0.30;0.20;;;;;;;12.52;100.00;100218.22;5053333;28;20473;-51
2024/03/18 10:15:32;;;;;;;0.30;0.20;;;;;;;12.61;100.00;100225.88;5053056;28;20731;-51
2024/03/18 10:17:58;;;;;;;0.33;0.20;;;;;;;12.58;100.00;100230.44;5053309;28;20475;-51
2024/03/18 10:20:24;;;;;;;0.30;0.20;;;;;;;12.56;100.00;100230.50;5053539;28;20224;-51
2024/03/18 10:22:54;;;;;;;1.90;1.80;;;;;;;12.59;100.00;100230.38;5053438;28;20728;-51
2024/03/18 10:25:23;;;;;;;0.30;0.20;;;;;;;12.49;100.00;100237.00;5034337;28;20685;-51
2024/03/18 10:27:50;;;;;;;0.30;0.20;;;;;;;12.73;100.00;100237.84;5053225;28;20470;-51
2024/03/18 10:30:16;;;;;;;0.30;0.20;;;;;;;12.85;100.00;100234.72;5053184;28;20470;-50
2024/03/18 10:32:43;;;;;;;0.30;0.20;;;;;;;13.05;100.00;100245.50;5053082;28;20461;-51
2024/03/18 10:35:19;;;;;;;0.30;0.20;;;;;;;12.92;100.00;100244.25;5038774;28;20828;-51
2024/03/18 10:37:55;;;;;;;0.30;0.20;;;;;;;12.77;100.00;100243.97;5052811;28;20850;-51
2024/03/18 10:40:30;;;;;;;0.30;0.20;;;;;;;13.03;100.00;100251.84;5036441;28;20437;-51
2024/03/18 10:43:00;;;;;;;0.30;0.20;;;;;;;12.94;100.00;100250.38;5033751;28;21014;-51
2024/03/18 10:45:27;;;;;;;0.30;0.20;;;;;;;12.70;100.00;100254.84;5045386;28;21015;-51
2024/03/18 10:47:54;;;;;;;0.30;0.20;;;;;;;12.62;100.00;100258.75;5034960;28;20449;-51
2024/03/18 10:50:22;;;;;;;0.30;0.20;;;;;;;12.58;100.00;100255.31;5052933;28;20434;-51
2024/03/18 10:52:50;;;;;;;0.30;0.20;;;;;;;12.56;100.00;100257.16;5052343;28;20465;-51
2024/03/18 10:55:20;;;;;;;0.30;0.20;;;;;;;12.62;100.00;100256.09;5048043;28;20973;-51
2024/03/18 10:57:48;;;;;;;0.30;0.20;;;;;;;12.54;100.00;100259.03;5049792;28;20437;-51
2024/03/18 11:00:18;;;;;;;0.30;0.20;;;;;;;12.61;100.00;100260.56;5052652;28;20459;-51
2024/03/18 11:02:58;;;;;;;0.30;0.30;;;;;;;12.87;100.00;100266.69;5052366;28;20440;-51
2024/03/18 11:05:27;;;;;;;0.30;0.20;;;;;;;12.87;100.00;100272.00;5066405;22;20510;-50
2024/03/18 11:08:06;;;;;;;0.30;0.20;;;;;;;12.73;100.00;100262.72;5016595;28;20468;-49
2024/03/18 11:10:38;;;;;;;0.30;0.20;;;;;;;12.69;100.00;100263.78;5018178;28;20498;-50
2024/03/18 11:13:11;;;;;;;0.30;0.20;;;;;;;12.96;100.00;100264.53;5035744;28;20473;-50